CheckWX is a tool to help pilots better visualize weather data.  It is not intended as a substitute for an official pre-flight weather briefing.

21:15:24 UTC

CYBL METAR
Campbell River Airport
Campbell River, Canada
Current

1 hour ago

CYBL 042000Z 09006KT 060V130 12SM -RA FEW006 BKN009 OVC025 04/03 A2983 RMK SF2SC4SC2 SLP108
Observed
Apr-4 @ 20:00 UTC
Wind
  • 090° at 6 KTS
Visibility
Flight Rules
IFR
Conditions
Light Rain
Cloud Levels
  • Few at 600' AGL
  • Broken at 900' AGL
  • Overcast at 2,500' AGL
Temperature
C / 39°F
Dewpoint
C / 37°F
Humidity
93%
Altimeter
29.83" Hg
Pressure
1010.12 hPa
Previous

2 hours ago

CYBL 041932Z 06005KT 030V110 10SM -RA SCT006 OVC010 04/02 A2984 RMK SF3SC5 SLP110
Observed
Apr-4 @ 19:32 UTC
Wind
  • 060° at 5 KTS
Visibility
Flight Rules
MVFR
Conditions
Light Rain
Cloud Levels
  • Scattered at 600' AGL
  • Overcast at 1,000' AGL
Temperature
C / 39°F
Dewpoint
C / 36°F
Humidity
87%
Altimeter
29.84" Hg
Pressure
1010.52 hPa
Previous

2 hours ago

CYBL 041900Z VRB03KT 8SM -RA BKN005 OVC008 03/02 A2985 RMK SF7SC1 CIG RAG SLP112
Observed
Apr-4 @ 19:00 UTC
Wind
  • Variable at 3 KTS
Visibility
Flight Rules
IFR
Conditions
Light Rain
Cloud Levels
  • Broken at 500' AGL
  • Overcast at 800' AGL
Temperature
C / 37°F
Dewpoint
C / 36°F
Humidity
93%
Altimeter
29.85" Hg
Pressure
1010.82 hPa